Time;durP1;ratioP1;P1;durP2;ratioP2;P2;SDS_P1;SDS_P2;PMS_P1;PMS_P2;Temp;Humidity;BMP_temperature;BMP_pressure;BME280_temperature;BME280_humidity;BME280_pressure;Samples;Min_cycle;Max_cycle;Signal;HPM_P1;HPM_P2
2023/09/18 00:00:24;;;;;;;16.42;10.43;;;;;;;17.68;100.00;100635.13;5000530;28;20042;-83
2023/09/18 00:02:50;;;;;;;14.68;10.05;;;;;;;17.64;100.00;100618.19;5000176;28;20041;-84
2023/09/18 00:05:15;;;;;;;15.30;10.65;;;;;;;17.63;100.00;100610.97;4999506;28;20375;-83
2023/09/18 00:07:44;;;;;;;14.25;9.82;;;;;;;17.62;100.00;100603.69;5001662;28;20033;-83
2023/09/18 00:10:13;;;;;;;17.25;10.82;;;;;;;17.65;100.00;100591.50;5003720;28;20048;-84
2023/09/18 00:12:40;;;;;;;15.27;9.77;;;;;;;17.64;100.00;100580.63;4997458;28;20031;-83
2023/09/18 00:15:08;;;;;;;14.95;10.45;;;;;;;17.61;100.00;100570.19;4974664;28;20048;-83
2023/09/18 00:17:34;;;;;;;15.40;10.57;;;;;;;17.61;100.00;100565.31;4977642;28;20456;-83
2023/09/18 00:19:59;;;;;;;15.70;10.23;;;;;;;17.60;100.00;100560.91;5006573;28;20048;-84
2023/09/18 00:22:25;;;;;;;20.33;12.40;;;;;;;17.62;100.00;100552.75;5005826;28;20395;-84
2023/09/18 00:24:50;;;;;;;16.05;9.77;;;;;;;17.56;100.00;100540.34;5005996;28;20418;-83
2023/09/18 00:27:16;;;;;;;14.88;10.10;;;;;;;17.55;100.00;100532.28;5002109;28;20117;-84
2023/09/18 00:29:42;;;;;;;17.85;11.02;;;;;;;17.59;100.00;100530.97;4985424;28;20039;-83
2023/09/18 00:32:07;;;;;;;14.27;9.30;;;;;;;17.58;100.00;100520.09;4999825;28;20025;-83
2023/09/18 00:34:33;;;;;;;14.35;10.60;;;;;;;17.60;100.00;100529.78;4990659;28;20037;-83
2023/09/18 00:36:59;;;;;;;20.23;13.18;;;;;;;17.61;100.00;100511.53;4999991;28;20385;-84
2023/09/18 00:39:25;;;;;;;12.40;9.25;;;;;;;17.54;100.00;100511.69;4988103;28;20042;-84
2023/09/18 00:41:53;;;;;;;16.20;10.32;;;;;;;17.58;100.00;100509.59;4999519;28;20038;-84
2023/09/18 00:44:22;;;;;;;22.63;14.95;;;;;;;17.55;100.00;100504.78;4996022;28;20763;-83
2023/09/18 00:46:49;;;;;;;20.45;13.43;;;;;;;17.58;100.00;100497.44;4987956;28;20026;-79
2023/09/18 00:49:16;;;;;;;26.92;18.08;;;;;;;17.48;100.00;100485.13;4979230;28;20041;-80
2023/09/18 00:51:42;;;;;;;18.70;13.00;;;;;;;17.44;100.00;100481.59;4993640;28;20037;-80
2023/09/18 00:54:09;;;;;;;18.98;13.35;;;;;;;17.46;100.00;100479.13;5000453;28;20018;-80
2023/09/18 00:56:35;;;;;;;27.42;16.17;;;;;;;17.54;100.00;100480.56;4998950;28;20198;-83
2023/09/18 00:59:02;;;;;;;21.92;14.20;;;;;;;17.46;100.00;100481.94;5001260;28;20029;-83
2023/09/18 01:01:29;;;;;;;24.98;17.65;;;;;;;17.54;100.00;100482.56;4984251;28;20068;-84
2023/09/18 01:03:56;;;;;;;24.15;15.30;;;;;;;17.51;100.00;100472.94;5005939;28;20025;-84
2023/09/18 01:06:27;;;;;;;29.95;17.80;;;;;;;17.48;100.00;100474.63;4998243;28;20033;-81
2023/09/18 01:08:54;;;;;;;18.25;12.07;;;;;;;17.37;100.00;100464.72;5002853;28;20497;-79
2023/09/18 01:11:28;;;;;;;23.73;16.27;;;;;;;17.57;100.00;100476.06;4990707;28;20101;-79
2023/09/18 01:14:25;;;;;;;26.95;17.92;;;;;;;17.51;100.00;100469.31;5005910;28;20483;-79
2023/09/18 01:16:57;;;;;;;23.17;15.55;;;;;;;17.49;100.00;100461.25;4985797;28;20498;-79
2023/09/18 01:19:45;;;;;;;19.25;13.77;;;;;;;17.53;100.00;100453.50;4989288;28;20113;-79
2023/09/18 01:22:12;;;;;;;21.05;13.23;;;;;;;17.40;100.00;100446.91;4990174;28;20037;-80
2023/09/18 01:24:38;;;;;;;22.17;15.95;;;;;;;17.55;100.00;100444.56;4968644;28;20049;-79
2023/09/18 01:27:05;;;;;;;31.48;18.52;;;;;;;17.56;100.00;100443.31;4991279;28;20061;-78
2023/09/18 01:29:31;;;;;;;26.92;17.73;;;;;;;17.51;100.00;100444.63;4970322;28;20692;-79
2023/09/18 01:31:57;;;;;;;27.83;19.17;;;;;;;17.53;100.00;100438.56;4970573;28;20042;-79
2023/09/18 01:34:28;;;;;;;26.45;17.58;;;;;;;17.51;100.00;100449.50;4964538;28;20022;-80
2023/09/18 01:36:56;;;;;;;25.50;18.75;;;;;;;17.55;100.00;100438.91;4957901;28;20082;-79
2023/09/18 01:39:23;;;;;;;27.05;18.15;;;;;;;17.52;100.00;100434.94;4977393;28;20380;-80
2023/09/18 01:41:49;;;;;;;26.05;17.80;;;;;;;17.51;100.00;100424.84;4962322;28;20088;-82
2023/09/18 01:44:15;;;;;;;30.80;18.85;;;;;;;17.45;100.00;100423.75;4982370;28;20038;-80
2023/09/18 01:46:42;;;;;;;33.45;17.92;;;;;;;17.51;100.00;100410.69;4981673;28;20041;-79
2023/09/18 01:49:07;;;;;;;29.35;17.27;;;;;;;17.50;100.00;100406.28;4984542;28;20030;-80
2023/09/18 01:51:33;;;;;;;27.60;17.38;;;;;;;17.52;100.00;100409.47;4998523;28;20393;-79
2023/09/18 01:53:58;;;;;;;25.52;17.20;;;;;;;17.50;100.00;100405.47;4964261;28;20446;-81
2023/09/18 01:56:23;;;;;;;20.08;14.07;;;;;;;17.43;100.00;100395.91;4976458;28;20177;-79
2023/09/18 01:58:49;;;;;;;25.45;17.08;;;;;;;17.53;100.00;100385.56;4986346;28;20034;-80
2023/09/18 02:01:15;;;;;;;21.48;15.30;;;;;;;17.49;100.00;100379.19;4982593;28;20073;-79
2023/09/18 02:03:41;;;;;;;22.85;14.80;;;;;;;17.44;100.00;100369.19;4959716;28;20081;-80
2023/09/18 02:06:07;;;;;;;26.42;17.08;;;;;;;17.48;100.00;100377.63;4985909;28;20042;-80
2023/09/18 02:08:32;;;;;;;23.27;16.38;;;;;;;17.53;100.00;100379.91;4971246;28;20494;-80
2023/09/18 02:10:57;;;;;;;27.58;17.40;;;;;;;17.53;100.00;100374.25;4988366;28;20030;-79
2023/09/18 02:13:23;;;;;;;18.73;13.90;;;;;;;17.40;100.00;100359.22;4992645;28;20042;-79
2023/09/18 02:15:48;;;;;;;24.73;16.35;;;;;;;17.48;100.00;100352.16;4971444;28;20069;-79
2023/09/18 02:18:15;;;;;;;13.50;9.68;;;;;;;17.41;100.00;100346.63;4967534;28;20066;-79
2023/09/18 02:20:41;;;;;;;22.02;14.63;;;;;;;17.53;100.00;100348.78;4991871;28;20080;-79
2023/09/18 02:23:07;;;;;;;18.45;13.43;;;;;;;17.42;100.00;100351.06;4989399;28;20034;-79
2023/09/18 02:25:32;;;;;;;10.57;8.10;;;;;;;17.41;100.00;100333.31;4987414;28;20048;-80
2023/09/18 02:27:57;;;;;;;14.55;10.63;;;;;;;17.55;100.00;100337.84;4985178;28;20066;-79
2023/09/18 02:30:23;;;;;;;16.13;10.10;;;;;;;17.59;100.00;100344.22;4978078;28;20048;-80
2023/09/18 02:32:49;;;;;;;13.90;9.40;;;;;;;17.50;100.00;100329.88;4991991;28;20055;-79
2023/09/18 02:35:14;;;;;;;21.17;15.52;;;;;;;17.60;100.00;100328.84;4969705;28;20054;-79
2023/09/18 02:37:39;;;;;;;23.05;14.90;;;;;;;17.64;100.00;100329.53;4992696;28;20036;-80
2023/09/18 02:40:05;;;;;;;24.25;16.50;;;;;;;17.59;100.00;100332.88;4962732;28;20046;-79
2023/09/18 02:42:31;;;;;;;23.25;15.30;;;;;;;17.63;100.00;100341.31;4977778;28;20034;-80
2023/09/18 02:44:56;;;;;;;25.27;16.50;;;;;;;17.57;100.00;100338.19;4971310;28;20128;-80
2023/09/18 02:47:21;;;;;;;26.40;18.42;;;;;;;17.59;100.00;100329.28;4964231;28;20034;-79
2023/09/18 02:49:47;;;;;;;31.25;18.35;;;;;;;17.59;100.00;100326.44;4971887;28;20038;-80
2023/09/18 02:52:12;;;;;;;26.73;17.23;;;;;;;17.58;100.00;100331.31;4974832;28;20021;-80
2023/09/18 02:54:37;;;;;;;25.48;17.10;;;;;;;17.57;100.00;100326.88;4967624;28;20030;-80
2023/09/18 02:57:03;;;;;;;28.58;17.63;;;;;;;17.61;100.00;100329.63;4969319;28;20191;-80
2023/09/18 02:59:28;;;;;;;26.88;18.02;;;;;;;17.57;100.00;100324.03;4986928;28;20490;-81
2023/09/18 03:01:54;;;;;;;25.30;16.80;;;;;;;17.57;100.00;100321.22;4981910;28;20030;-80
2023/09/18 03:04:19;;;;;;;28.85;18.10;;;;;;;17.60;100.00;100314.69;4987626;28;20037;-79
2023/09/18 03:06:45;;;;;;;27.60;16.38;;;;;;;17.49;100.00;100294.31;4984921;28;20474;-79
2023/09/18 03:09:10;;;;;;;28.88;19.05;;;;;;;17.58;100.00;100294.53;4963445;28;20038;-79
2023/09/18 03:11:35;;;;;;;28.55;17.25;;;;;;;17.59;100.00;100286.81;4986304;28;20034;-79
2023/09/18 03:14:01;;;;;;;25.60;16.75;;;;;;;17.44;100.00;100273.00;4988414;28;20423;-79
2023/09/18 03:16:26;;;;;;;36.50;20.30;;;;;;;17.61;100.00;100268.16;5002295;28;20045;-79
2023/09/18 03:18:52;;;;;;;30.88;19.02;;;;;;;17.59;100.00;100264.19;4991288;28;20040;-79
2023/09/18 03:21:17;;;;;;;27.38;17.83;;;;;;;17.59;100.00;100252.88;5006165;28;20091;-79
2023/09/18 03:23:42;;;;;;;20.60;13.70;;;;;;;17.44;100.00;100250.38;4998820;28;20059;-79
2023/09/18 03:26:08;;;;;;;29.80;17.73;;;;;;;17.58;100.00;100232.28;4997326;28;20038;-81
2023/09/18 03:28:33;;;;;;;30.75;18.80;;;;;;;17.55;100.00;100230.31;5008242;28;20125;-79
2023/09/18 03:30:59;;;;;;;34.03;18.23;;;;;;;17.55;100.00;100210.50;5001725;28;20044;-80
2023/09/18 03:33:24;;;;;;;28.98;16.73;;;;;;;17.54;100.00;100194.78;4999500;28;20109;-79
2023/09/18 03:35:51;;;;;;;25.77;16.33;;;;;;;17.58;100.00;100184.16;5003782;28;20026;-80
2023/09/18 03:38:17;;;;;;;24.50;17.13;;;;;;;17.60;100.00;100178.84;4997623;28;20027;-80
2023/09/18 03:40:43;;;;;;;28.15;16.35;;;;;;;17.52;100.00;100162.47;4999746;28;20088;-79
2023/09/18 03:43:09;;;;;;;27.33;16.65;;;;;;;17.60;100.00;100161.06;5003443;28;20042;-80
2023/09/18 03:45:35;;;;;;;29.77;17.77;;;;;;;17.57;100.00;100159.13;5000324;28;20046;-79
2023/09/18 03:48:01;;;;;;;20.48;13.05;;;;;;;17.51;100.00;100153.19;4984930;28;20052;-80
2023/09/18 03:50:27;;;;;;;32.78;14.85;;;;;;;17.54;100.00;100155.16;5002691;28;20033;-80
2023/09/18 03:52:52;;;;;;;29.05;18.20;;;;;;;17.65;100.00;100149.22;4997664;28;20500;-80
2023/09/18 03:55:18;;;;;;;32.42;17.90;;;;;;;17.57;100.00;100142.94;5001572;28;20029;-80
2023/09/18 03:57:44;;;;;;;24.50;15.85;;;;;;;17.64;100.00;100144.78;5008987;28;20041;-80
2023/09/18 04:00:11;;;;;;;29.20;17.83;;;;;;;17.62;100.00;100147.25;5003239;28;20060;-81
2023/09/18 04:02:36;;;;;;;29.08;17.20;;;;;;;17.64;100.00;100148.41;4999340;28;20471;-79
2023/09/18 04:05:03;;;;;;;20.60;13.82;;;;;;;17.59;100.00;100145.34;4995556;28;20030;-79
2023/09/18 04:07:28;;;;;;;29.55;15.98;;;;;;;17.58;100.00;100147.38;5008429;28;20034;-81
2023/09/18 04:09:53;;;;;;;22.48;15.10;;;;;;;17.59;100.00;100137.63;5007546;28;20057;-80
2023/09/18 04:12:19;;;;;;;25.15;16.95;;;;;;;17.60;100.00;100132.75;5005605;28;20447;-79
2023/09/18 04:14:45;;;;;;;20.88;14.50;;;;;;;17.50;100.00;100129.00;4985943;28;20051;-83
2023/09/18 04:17:10;;;;;;;23.10;14.75;;;;;;;17.56;100.00;100134.88;4951751;28;20150;-84
2023/09/18 04:19:36;;;;;;;20.90;13.63;;;;;;;17.63;100.00;100129.84;4990931;28;20070;-84
2023/09/18 04:22:01;;;;;;;23.55;14.93;;;;;;;17.58;100.00;100127.56;4983581;28;20114;-84
2023/09/18 04:24:26;;;;;;;25.77;15.85;;;;;;;17.62;100.00;100122.59;4991260;28;20026;-84
2023/09/18 04:26:52;;;;;;;23.45;15.90;;;;;;;17.65;100.00;100120.91;4965540;28;20096;-83
2023/09/18 04:29:18;;;;;;;26.90;17.65;;;;;;;17.63;100.00;100112.88;4980657;28;20045;-81
2023/09/18 04:31:44;;;;;;;28.33;17.25;;;;;;;17.65;100.00;100121.72;4983184;28;20073;-82
2023/09/18 04:34:10;;;;;;;27.23;16.35;;;;;;;17.63;100.00;100112.88;4970963;28;20510;-83
2023/09/18 04:36:37;;;;;;;26.90;15.70;;;;;;;17.62;100.00;100114.09;4985012;28;20034;-84
2023/09/18 04:39:04;;;;;;;30.15;17.40;;;;;;;17.64;100.00;100114.44;4970216;28;20105;-84
2023/09/18 04:41:30;;;;;;;26.10;15.60;;;;;;;17.62;100.00;100118.97;4957462;28;20251;-84
2023/09/18 04:43:55;;;;;;;26.27;16.10;;;;;;;17.65;100.00;100115.25;4975684;28;20450;-84
2023/09/18 04:46:20;;;;;;;29.60;17.42;;;;;;;17.70;100.00;100111.09;4975527;28;20782;-84
2023/09/18 04:48:46;;;;;;;28.23;16.30;;;;;;;17.67;100.00;100122.06;4962414;28;20036;-83
2023/09/18 04:51:12;;;;;;;24.88;15.82;;;;;;;17.66;100.00;100128.16;4979558;28;20037;-84
2023/09/18 04:53:38;;;;;;;24.30;16.17;;;;;;;17.68;100.00;100126.47;4963374;28;20038;-84
2023/09/18 04:56:03;;;;;;;20.00;13.75;;;;;;;17.79;100.00;100119.72;4981789;28;20046;-84
2023/09/18 04:58:29;;;;;;;30.83;16.17;;;;;;;17.85;100.00;100113.09;4980684;28;20097;-82
2023/09/18 05:00:58;;;;;;;24.40;14.75;;;;;;;17.83;100.00;100097.81;4975146;28;20430;-83
2023/09/18 05:03:25;;;;;;;23.17;14.75;;;;;;;17.84;100.00;100088.88;4960586;28;20085;-82
2023/09/18 05:05:50;;;;;;;26.70;14.70;;;;;;;17.76;100.00;100081.78;4965491;28;20041;-84
2023/09/18 05:08:16;;;;;;;26.50;16.08;;;;;;;17.83;100.00;100070.28;4980083;28;20406;-83
2023/09/18 05:10:42;;;;;;;28.08;14.93;;;;;;;17.79;100.00;100082.91;4974768;28;20037;-82
2023/09/18 05:13:08;;;;;;;21.88;14.02;;;;;;;17.81;100.00;100072.72;4986622;28;20042;-84
2023/09/18 05:15:33;;;;;;;21.85;14.27;;;;;;;17.77;100.00;100093.91;4975605;28;20414;-85
2023/09/18 05:17:59;;;;;;;23.67;14.73;;;;;;;17.83;100.00;100086.47;5001627;28;20064;-85
2023/09/18 05:20:26;;;;;;;22.10;14.20;;;;;;;17.77;100.00;100076.91;4998181;28;20037;-83
2023/09/18 05:22:55;;;;;;;22.05;14.00;;;;;;;17.84;100.00;100066.22;4999943;28;20030;-85
2023/09/18 05:25:22;;;;;;;22.90;13.65;;;;;;;17.79;100.00;100063.09;4982486;28;20486;-80
2023/09/18 05:27:54;;;;;;;20.75;12.10;;;;;;;17.66;100.00;100061.03;4985046;28;20034;-79
2023/09/18 05:30:23;;;;;;;24.77;14.90;;;;;;;17.79;100.00;100069.59;4988623;28;20089;-80
2023/09/18 05:32:49;;;;;;;21.48;13.18;;;;;;;17.70;100.00;100077.91;5003703;28;20437;-81
2023/09/18 05:35:15;;;;;;;23.52;14.10;;;;;;;17.77;100.00;100102.38;5001278;28;20631;-80
2023/09/18 05:37:41;;;;;;;18.77;12.00;;;;;;;17.77;100.00;100123.03;5000100;28;20033;-80
2023/09/18 05:40:11;;;;;;;18.65;11.75;;;;;;;17.81;100.00;100128.56;4995915;28;20045;-80
2023/09/18 05:42:42;;;;;;;20.55;13.18;;;;;;;17.80;100.00;100124.16;4984343;28;20094;-79
2023/09/18 05:45:09;;;;;;;20.57;11.07;;;;;;;17.79;100.00;100133.88;5000945;28;20080;-79
2023/09/18 05:47:38;;;;;;;22.38;12.95;;;;;;;17.91;100.00;100127.50;4998548;28;20714;-83
2023/09/18 05:50:06;;;;;;;23.75;15.95;;;;;;;18.04;100.00;100122.69;5002354;28;20524;-79
2023/09/18 05:52:32;;;;;;;22.92;13.88;;;;;;;17.98;100.00;100133.00;5007853;28;20030;-79
2023/09/18 05:54:57;;;;;;;25.48;14.82;;;;;;;17.92;100.00;100126.28;5002595;28;20032;-80
2023/09/18 05:57:22;;;;;;;22.13;11.73;;;;;;;17.90;100.00;100125.13;4986230;28;20453;-80
2023/09/18 05:59:48;;;;;;;19.23;11.55;;;;;;;18.11;100.00;100120.88;4997690;28;20025;-79
2023/09/18 06:02:13;;;;;;;18.35;12.63;;;;;;;18.16;100.00;100121.13;4969696;28;20113;-79
2023/09/18 06:04:38;;;;;;;17.95;9.77;;;;;;;18.28;100.00;100105.44;5000945;28;20415;-79
2023/09/18 06:07:04;;;;;;;18.08;11.13;;;;;;;18.35;100.00;100084.59;4988239;28;20057;-80
2023/09/18 06:09:29;;;;;;;17.80;10.52;;;;;;;18.34;100.00;100085.81;4999380;28;20112;-80
2023/09/18 06:11:55;;;;;;;20.27;11.55;;;;;;;18.38;100.00;100086.50;4992755;28;20076;-80
2023/09/18 06:14:20;;;;;;;16.35;10.85;;;;;;;18.46;100.00;100087.88;4969027;28;20310;-80
2023/09/18 06:16:45;;;;;;;21.30;12.82;;;;;;;18.53;100.00;100098.19;5007337;28;20406;-82
2023/09/18 06:19:11;;;;;;;16.10;11.35;;;;;;;18.54;100.00;100108.28;5006403;28;20018;-80
2023/09/18 06:21:36;;;;;;;18.50;10.73;;;;;;;18.54;100.00;100125.31;4990163;28;20037;-81
2023/09/18 06:24:01;;;;;;;19.17;11.20;;;;;;;18.46;100.00;100150.22;5006983;28;20045;-82
2023/09/18 06:26:27;;;;;;;20.52;11.50;;;;;;;18.44;100.00;100141.38;4991359;28;20088;-80
2023/09/18 06:28:54;;;;;;;24.55;12.88;;;;;;;18.57;100.00;100124.38;4998375;28;20037;-80
2023/09/18 06:31:20;;;;;;;22.35;12.07;;;;;;;18.58;100.00;100108.97;5012164;28;20125;-83
2023/09/18 06:33:45;;;;;;;17.40;11.25;;;;;;;18.52;100.00;100102.28;5008278;28;20061;-81
2023/09/18 06:36:11;;;;;;;21.85;10.30;;;;;;;19.04;100.00;100104.69;4993515;28;20064;-86
2023/09/18 06:38:36;;;;;;;23.17;11.30;;;;;;;18.96;100.00;100096.88;5012107;28;20057;-87
2023/09/18 06:41:02;;;;;;;17.95;9.82;;;;;;;19.09;100.00;100101.28;4987952;28;20037;-87
2023/09/18 06:43:28;;;;;;;19.45;10.23;;;;;;;18.98;100.00;100106.50;5018747;28;20073;-87
2023/09/18 06:45:53;;;;;;;18.23;10.75;;;;;;;19.15;100.00;100098.66;5006914;28;20029;-87
2023/09/18 06:48:18;;;;;;;20.52;9.73;;;;;;;19.35;100.00;100101.22;5018487;28;20021;-87
2023/09/18 06:50:44;;;;;;;16.20;9.30;;;;;;;19.38;100.00;100102.38;4991062;28;20022;-85
2023/09/18 06:53:10;;;;;;;17.40;10.13;;;;;;;19.36;100.00;100102.03;5014505;28;20026;-93
2023/09/18 06:55:36;;;;;;;15.43;9.95;;;;;;;19.52;100.00;100103.91;4996603;28;20072;-91
2023/09/18 06:58:01;;;;;;;18.90;8.57;;;;;;;19.60;100.00;100117.38;4999021;28;20116;-92
2023/09/18 07:00:26;;;;;;;18.60;10.65;;;;;;;19.64;100.00;100123.72;4991026;28;20029;-89
2023/09/18 07:02:52;;;;;;;98.55;29.25;;;;;;;19.86;100.00;100125.88;5019170;28;20085;-90
2023/09/18 07:05:17;;;;;;;59.00;21.95;;;;;;;19.97;100.00;100146.16;5013602;28;20034;-89
2023/09/18 07:07:43;;;;;;;33.35;15.52;;;;;;;19.86;100.00;100151.44;4995438;28;20037;-90
2023/09/18 07:10:08;;;;;;;39.20;14.05;;;;;;;19.95;100.00;100137.28;4997098;28;20129;-90
2023/09/18 07:12:34;;;;;;;24.63;13.82;;;;;;;19.69;100.00;100140.19;5010796;28;20065;-91
2023/09/18 07:15:03;;;;;;;22.98;12.52;;;;;;;19.93;100.00;100161.75;5007592;28;20474;-89
2023/09/18 07:17:29;;;;;;;23.70;13.27;;;;;;;19.98;100.00;100152.63;4998297;28;20448;-87
2023/09/18 07:19:54;;;;;;;22.35;12.18;;;;;;;20.06;100.00;100149.06;5017662;28;20041;-90
2023/09/18 07:22:20;;;;;;;20.30;11.50;;;;;;;19.94;100.00;100140.59;5028564;28;20481;-89
2023/09/18 07:24:46;;;;;;;19.05;11.40;;;;;;;20.10;100.00;100141.19;5012890;28;20034;-89
2023/09/18 07:27:11;;;;;;;21.13;11.15;;;;;;;20.14;100.00;100138.22;4996837;28;20018;-90
2023/09/18 07:29:37;;;;;;;20.48;11.80;;;;;;;20.12;100.00;100137.09;5012714;28;20038;-90
2023/09/18 07:32:02;;;;;;;22.35;12.27;;;;;;;20.24;100.00;100137.03;4996708;28;20068;-89
2023/09/18 07:34:28;;;;;;;17.83;11.55;;;;;;;20.50;100.00;100140.50;5021260;28;20067;-90
2023/09/18 07:36:55;;;;;;;18.00;11.45;;;;;;;20.31;100.00;100135.97;5000618;28;20042;-89
2023/09/18 07:39:21;;;;;;;17.33;10.38;;;;;;;20.37;100.00;100134.13;5018745;28;20029;-87
2023/09/18 07:41:47;;;;;;;23.75;12.38;;;;;;;20.51;100.00;100133.59;5016473;28;20386;-88
2023/09/18 07:44:18;;;;;;;18.13;11.15;;;;;;;20.39;100.00;100119.47;5013625;28;20033;-88
2023/09/18 07:46:44;;;;;;;17.02;10.65;;;;;;;20.22;100.00;100116.03;4992476;28;20034;-83
2023/09/18 07:49:09;;;;;;;17.40;10.05;;;;;;;20.10;100.00;100132.66;5001683;28;20497;-83
2023/09/18 07:51:34;;;;;;;15.65;11.27;;;;;;;20.23;100.00;100123.28;5015968;28;20064;-84
2023/09/18 07:54:00;;;;;;;19.40;10.02;;;;;;;20.13;100.00;100113.91;5011992;28;20033;-83
2023/09/18 07:56:25;;;;;;;15.30;9.10;;;;;;;20.30;100.00;100140.06;5022913;28;20041;-82
2023/09/18 07:58:51;;;;;;;14.40;9.63;;;;;;;20.14;100.00;100132.53;4990919;28;20030;-83
2023/09/18 08:01:17;;;;;;;13.98;9.73;;;;;;;20.36;100.00;100121.16;4988305;28;20030;-83
2023/09/18 08:03:42;;;;;;;16.08;9.73;;;;;;;20.33;100.00;100109.94;4997495;28;20040;-83
2023/09/18 08:06:07;;;;;;;13.40;8.18;;;;;;;20.32;100.00;100120.50;5019428;28;20026;-83
2023/09/18 08:08:33;;;;;;;13.82;8.70;;;;;;;20.52;100.00;100125.84;4996991;28;20390;-83
2023/09/18 08:11:06;;;;;;;14.27;8.85;;;;;;;20.60;100.00;100134.94;5008220;28;20026;-83
2023/09/18 08:13:32;;;;;;;11.10;8.75;;;;;;;20.55;100.00;100133.41;5001479;28;20124;-84
2023/09/18 08:15:57;;;;;;;13.15;8.70;;;;;;;20.60;100.00;100135.72;5017312;28;20159;-84
2023/09/18 08:18:26;;;;;;;12.93;7.57;;;;;;;20.67;100.00;100134.63;5016876;28;20022;-84
2023/09/18 08:20:52;;;;;;;17.50;10.85;;;;;;;19.97;100.00;100149.00;5012740;28;20490;-83
2023/09/18 08:23:17;;;;;;;14.25;9.02;;;;;;;20.34;100.00;100152.09;5012489;28;20033;-84
2023/09/18 08:25:42;;;;;;;12.57;8.38;;;;;;;20.52;100.00;100146.53;5009760;28;20029;-84
2023/09/18 08:28:08;;;;;;;15.30;9.05;;;;;;;20.51;100.00;100147.78;5023005;28;20752;-83
2023/09/18 08:30:33;;;;;;;12.50;8.98;;;;;;;20.27;100.00;100149.53;4993317;28;20505;-84
2023/09/18 08:32:59;;;;;;;17.52;8.98;;;;;;;20.34;100.00;100162.66;4988566;28;20018;-83
2023/09/18 08:35:28;;;;;;;13.80;9.07;;;;;;;20.49;100.00;100169.41;4992861;28;20029;-83
2023/09/18 08:37:54;;;;;;;12.75;9.18;;;;;;;20.51;100.00;100166.88;5007898;28;20033;-83
2023/09/18 08:40:19;;;;;;;16.95;9.85;;;;;;;20.37;100.00;100150.38;5012687;28;20483;-83
2023/09/18 08:42:47;;;;;;;13.45;8.43;;;;;;;20.13;100.00;100158.56;4996919;28;20184;-83
2023/09/18 08:45:22;;;;;;;14.98;9.18;;;;;;;20.09;100.00;100156.66;4991630;28;20048;-84
2023/09/18 08:47:48;;;;;;;9.55;7.30;;;;;;;20.12;100.00;100146.41;4998111;28;20037;-83
2023/09/18 08:50:15;;;;;;;8.93;6.38;;;;;;;20.17;100.00;100159.22;4987222;28;20030;-84
2023/09/18 08:52:41;;;;;;;9.43;6.93;;;;;;;20.26;100.00;100143.06;5005850;28;20021;-83
2023/09/18 08:55:07;;;;;;;13.15;7.75;;;;;;;20.39;100.00;100151.50;5009311;28;20037;-84
2023/09/18 08:57:35;;;;;;;12.35;7.55;;;;;;;20.32;100.00;100148.91;5008655;28;20103;-83
2023/09/18 09:00:06;;;;;;;13.63;7.95;;;;;;;19.97;100.00;100137.63;5010979;28;20030;-83
2023/09/18 09:02:32;;;;;;;13.38;7.25;;;;;;;19.87;100.00;100147.31;4995429;28;20042;-84
2023/09/18 09:04:58;;;;;;;10.80;6.70;;;;;;;19.95;100.00;100171.38;4998159;28;20490;-83
2023/09/18 09:07:26;;;;;;;10.18;6.80;;;;;;;20.23;100.00;100161.00;4992390;28;20092;-84
2023/09/18 09:09:51;;;;;;;11.60;6.97;;;;;;;20.25;100.00;100158.50;4997527;28;20053;-83
2023/09/18 09:12:46;;;;;;;12.35;7.80;;;;;;;20.20;100.00;100181.06;5022088;28;20062;-85
2023/09/18 09:15:12;;;;;;;10.93;7.60;;;;;;;20.15;100.00;100188.09;5018370;28;20529;-84
2023/09/18 09:17:38;;;;;;;10.85;7.15;;;;;;;20.22;100.00;100178.53;5016868;28;20057;-84
2023/09/18 09:20:12;;;;;;;9.63;7.20;;;;;;;20.30;100.00;100172.13;5022746;28;20022;-83
2023/09/18 09:22:42;;;;;;;8.25;6.32;;;;;;;20.55;100.00;100183.81;5014824;28;20034;-84
2023/09/18 09:25:31;;;;;;;9.77;7.15;;;;;;;20.29;100.00;100195.31;4996556;28;20133;-84
2023/09/18 09:27:58;;;;;;;13.23;8.30;;;;;;;20.19;100.00;100193.66;5011820;28;20497;-84
2023/09/18 09:30:25;;;;;;;9.20;6.72;;;;;;;20.19;100.00;100190.81;5008574;28;21083;-83
2023/09/18 09:32:53;;;;;;;13.45;7.88;;;;;;;20.21;100.00;100180.56;5016170;28;20108;-83
2023/09/18 09:35:31;;;;;;;12.43;6.88;;;;;;;20.26;100.00;100182.03;5014563;28;20083;-83
2023/09/18 09:38:00;;;;;;;10.15;7.82;;;;;;;20.19;100.00;100176.63;5014974;28;20034;-83
2023/09/18 09:40:26;;;;;;;11.07;6.75;;;;;;;20.23;100.00;100192.28;5011103;28;20551;-83
2023/09/18 09:43:00;;;;;;;13.00;6.65;;;;;;;20.27;100.00;100195.00;4978704;28;20035;-83
2023/09/18 09:45:29;;;;;;;10.57;7.80;;;;;;;20.00;100.00;100202.03;5015522;28;20520;-83
2023/09/18 09:47:59;;;;;;;9.80;6.93;;;;;;;20.27;100.00;100198.63;5012450;28;20030;-82
2023/09/18 09:50:25;;;;;;;10.32;7.75;;;;;;;20.45;100.00;100208.53;5008534;28;20033;-83
2023/09/18 09:52:53;;;;;;;9.10;7.00;;;;;;;20.26;100.00;100214.09;5009609;28;20026;-83
2023/09/18 09:55:29;;;;;;;9.15;6.40;;;;;;;20.39;100.00;100219.72;5005642;28;20120;-83
2023/09/18 09:58:01;;;;;;;8.05;6.97;;;;;;;20.43;100.00;100194.03;5012043;28;20030;-83
2023/09/18 10:00:43;;;;;;;8.88;6.30;;;;;;;20.34;100.00;100203.25;5009110;28;20033;-83
2023/09/18 10:03:12;;;;;;;9.57;7.60;;;;;;;20.15;100.00;100207.19;4989722;28;20041;-83
2023/09/18 10:05:42;;;;;;;8.15;6.70;;;;;;;20.24;100.00;100208.09;5010671;28;20034;-87
2023/09/18 10:08:13;;;;;;;7.30;6.50;;;;;;;20.42;100.00;100209.47;4990476;28;20038;-87
2023/09/18 10:10:44;;;;;;;8.48;6.47;;;;;;;20.34;100.00;100217.44;5013568;28;20034;-90
2023/09/18 10:13:15;;;;;;;8.45;6.88;;;;;;;20.45;100.00;100226.41;5015515;28;20025;-90
2023/09/18 10:15:43;;;;;;;10.00;7.20;;;;;;;20.54;100.00;100219.19;4988086;28;20041;-89
2023/09/18 10:18:17;;;;;;;9.95;6.80;;;;;;;20.54;100.00;100222.81;4996981;28;20022;-90
2023/09/18 10:20:47;;;;;;;7.55;5.80;;;;;;;20.51;100.00;100224.56;4992918;28;20026;-89
2023/09/18 10:23:27;;;;;;;6.68;5.80;;;;;;;20.53;100.00;100224.06;5012738;28;20028;-88
2023/09/18 10:25:56;;;;;;;10.95;6.57;;;;;;;20.57;100.00;100223.94;5005677;28;20113;-88
2023/09/18 10:28:26;;;;;;;7.38;5.95;;;;;;;20.49;100.00;100223.41;5015577;28;20033;-89
2023/09/18 10:30:52;;;;;;;7.18;5.38;;;;;;;20.48;100.00;100225.47;5010724;28;20113;-90
2023/09/18 10:33:17;;;;;;;6.78;5.53;;;;;;;20.63;100.00;100224.97;5009794;28;20096;-88
2023/09/18 10:35:46;;;;;;;8.63;5.55;;;;;;;20.61;100.00;100238.84;5011998;28;20510;-89
2023/09/18 10:38:12;;;;;;;6.82;5.15;;;;;;;20.55;100.00;100235.00;4992735;28;20066;-90
2023/09/18 10:40:40;;;;;;;6.22;5.63;;;;;;;20.57;100.00;100235.31;5013047;28;20038;-90
2023/09/18 10:43:09;;;;;;;6.53;5.05;;;;;;;20.54;100.00;100230.56;4998691;28;20057;-88
2023/09/18 10:45:35;;;;;;;10.27;5.80;;;;;;;20.72;100.00;100236.38;5009545;28;20065;-87
2023/09/18 10:48:02;;;;;;;6.13;5.15;;;;;;;20.71;100.00;100243.34;4990688;28;20064;-90
2023/09/18 10:50:29;;;;;;;7.82;4.93;;;;;;;20.66;100.00;100238.25;4996543;28;20064;-87
2023/09/18 10:52:57;;;;;;;6.00;4.95;;;;;;;20.67;100.00;100254.06;5004757;28;20542;-88
2023/09/18 10:55:24;;;;;;;5.07;4.40;;;;;;;20.56;100.00;100247.97;4993014;28;20030;-91
2023/09/18 10:57:58;;;;;;;5.80;5.15;;;;;;;20.57;100.00;100255.22;4995385;28;20091;-90
2023/09/18 11:00:29;;;;;;;5.85;4.85;;;;;;;20.59;100.00;100255.59;4989264;28;20033;-89
2023/09/18 11:03:10;;;;;;;7.68;4.38;;;;;;;20.47;100.00;100248.66;4994669;28;20037;-89